ETSL

Details ICAO ETSL
Name LECHFELD
Region Germany - Military
Timezone Europe/Berlin (UTC+1.0)
Plans Departing 1
Arriving 0
Stats Elevation 1,822 ft / 555 m (AMSL)
Location 48.185499° 10.861168°
Runways 1
Magnetic Variation 2.804° E
Sunrise 2016-12-04 06:51:26 UTC / 2016-12-04 07:51:26 Local
Sunset 2016-12-04 15:25:19 UTC / 2016-12-04 16:25:19 Local
Advertisement - Login to hide

Runways

ID Width Length Bearing (true) Bearing (mag) Surface Threshold Offset Overrun Length
03 98 ft / 30 m 8,008 ft / 2,441 m 28.92° 26.12° Concrete 0 ft / 0 m 961 ft / 293 m
21 98 ft / 30 m 8,008 ft / 2,441 m 208.93° 206.13° Concrete 0 ft / 0 m 945 ft / 288 m

Map

Weather

Temperature
Clouds and Precipitation
Forecast for 2016-12-03 18:00 UTC. Updated 13 hours ago
Winds

METAR

ETSL 040520Z AUTO 05004KT 1800 // ////// M03/M03 Q1024 ///

TAF

Not found

Frequencies

Tower 122.10 MHz TWR
Approach 123.30 MHz RADAR
Tower 135.15 MHz TWR
Approach 129.02 MHz RADAR
Warning: Do not use this data for real-world aviation or navigation. No guarantee of current accuracy is given.